METAR Data
IDs: Format: Raw Decoded Include TAF

Data at: 2330 UTC 18 Oct 2019

Region: TOP
KATL 182252Z 09008KT 10SM BKN180 OVC250 18/07 A2996 RMK AO2 SLP143 VIRGA E-OHD-W T01780067

KBOS 182254Z 31009KT 10SM FEW045 13/02 A2983 RMK AO2 SLP100 T01280022

KBWI 182254Z 29006KT 10SM CLR 14/02 A2997 RMK AO2 SLP150 T01390022

KCLE 182251Z 02006KT 10SM FEW035 SCT250 09/03 A3007 RMK AO2 SLP184 T00940033

KCLT 182252Z 00000KT 10SM BKN250 14/06 A3002 RMK AO2 SLP166 T01440056

KCVG 182252Z 10006KT 10SM FEW250 14/03 A2999 RMK AO2 SLP155 T01390028

KDCA 182252Z 31008KT 10SM FEW250 16/02 A3001 RMK AO2 SLP163 T01560022

KDEN 182253Z 09013G19KT 10SM SCT080 BKN110 BKN200 14/M02 A2976 RMK AO2 SLP030 T01441022

KDFW 182253Z 15011KT 10SM CLR 24/03 A2972 RMK AO2 SLP059 T02390033

KDTW 182253Z 17006KT 10SM BKN220 10/03 A3004 RMK AO2 SLP176 T01000033

KEWR 182251Z 33015G27KT 10SM FEW040 11/02 A2995 RMK AO2 PK WND 32027/2250 SLP140 T01110017 $

KFLL 182253Z 16011KT 10SM FEW030 FEW050 SCT150 OVC190 28/24 A2987 RMK AO2 SLP115 T02830239 $

KIAD 182252Z 32006KT 10SM FEW120 FEW200 13/02 A3002 RMK AO2 SLP164 T01330017

KIAH 182253Z 12006KT 10SM CLR 26/15 A2974 RMK AO2 SLP070 T02560150

KJFK 182251Z 32015KT 10SM FEW045 SCT250 11/03 A2994 RMK AO2 SLP137 T01110033

KLAS 182256Z 00000KT 10SM CLR 24/M12 A2989 RMK AO2 SLP103 T02441122

KLAX 182253Z 26014KT 10SM FEW200 22/09 A2989 RMK AO2 SLP121 T02220089 $

KLGA 182251Z 32016G25KT 10SM BKN045 12/03 A2993 RMK AO2 SLP135 T01170028

KMCO 182253Z 07008G17KT 10SM SCT050 SCT070 BKN150 BKN170 OVC250 26/19 A2990 RMK AO2 SLP122 T02560194

KMDW 182253Z 16006KT 10SM SCT250 15/04 A2993 RMK AO2 SLP138 T01500039

KMEM 182254Z 13005KT 10SM FEW250 21/07 A2987 RMK AO2 SLP115 T02060067

KMIA 182253Z VRB05KT 10SM FEW030 FEW080 OVC250 28/23 A2988 RMK AO2 SLP119 T02830228

KMSP 182253Z 16019G31KT 10SM SCT300 20/06 A2956 RMK AO2 PK WND 15033/2155 SLP009 T02000056

KORD 182251Z 16009KT 10SM SCT250 14/04 A2993 RMK AO2 SLP136 T01390039

KPDX 182253Z 19011KT 10SM FEW030 SCT055 BKN070 OVC250 14/09 A2996 RMK AO2 SLP144 T01390094

KPHL 182254Z 31006KT 10SM CLR 15/01 A2996 RMK AO2 SLP144 T01500006 $

KPHX 182251Z 29009KT 10SM CLR 29/02 A2977 RMK AO2 SLP066 T02940017

KPIT 182251Z 27004KT 10SM BKN250 10/02 A3003 RMK AO2 SLP182 T01000022

KSAN 182251Z 30012KT 10SM CLR 22/14 A2989 RMK AO2 SLP123 T02220144

KSEA 182253Z 18007KT 10SM -RA SCT018 BKN039 OVC050 11/08 A2988 RMK AO2 SLP126 P0002 T01060083

KSFO 182256Z 28018KT 10SM FEW008 FEW015 SCT180 18/10 A3006 RMK AO2 SLP180 T01780100

KSLC 182254Z 35008KT 10SM FEW070 SCT120 13/M03 A2999 RMK AO2 SLP138 T01331028

KSTL 182251Z 14010KT 10SM SCT250 18/04 A2988 RMK AO2 SLP119 T01780039

KTPA 182253Z 06004KT 10SM -RA FEW045 BKN110 OVC130 23/21 A2986 RMK AO2 LTG DSNT SW SLP112 P0004 T02330211